This is the latest recevied weather packets stored in our database for station/object E7HQ-1. If no packets are shown the sender has not sent any weather packets the latest 10 day(s).
| Time | Temp. | Humidity | Pressure | Rain* | Wind** | Luminosity | Snow |
|---|---|---|---|---|---|---|---|
| 1777546615 | 10.56° C | 52% | 1033.2 hPa | - | - | - | - |
| 1777545715 | 10° C | 53% | 1033.3 hPa | - | - | - | - |
| 1777544814 | 10.56° C | 56% | 1033.2 hPa | - | - | - | - |
| 1777543914 | 10° C | 62% | 1033.4 hPa | - | - | - | - |
| 1777543014 | 7.78° C | 69% | 1033.7 hPa | - | - | - | - |
| 1777542114 | 5.56° C | 72% | 1033.8 hPa | - | - | - | - |
| 1777541214 | 5.56° C | 73% | 1033.9 hPa | - | - | - | - |
| 1777540313 | 5° C | 76% | 1033.9 hPa | - | - | - | - |
| 1777539413 | 5.56° C | 76% | 1033.8 hPa | - | - | - | - |
| 1777538513 | 6.11° C | 76% | 1033.6 hPa | - | - | - | - |
| 1777537613 | 6.11° C | 74% | 1033.5 hPa | - | - | - | - |
| 1777536713 | 6.67° C | 72% | 1033.4 hPa | - | - | - | - |
| 1777535812 | 6.67° C | 69% | 1033.2 hPa | - | - | - | - |
| 1777534912 | 7.78° C | 69% | 1033.1 hPa | - | - | - | - |
| 1777534012 | 6.67° C | 71% | 1033.1 hPa | - | - | - | - |
| 1777533112 | 6.67° C | 72% | 1033 hPa | - | - | - | - |
| 1777532211 | 6.67° C | 74% | 1033 hPa | - | - | - | - |
| 1777531311 | 6.11° C | 74% | 1032.9 hPa | - | - | - | - |
| 1777530411 | 5.56° C | 74% | 1033.1 hPa | - | - | - | - |
| 1777529515 | 5.56° C | 75% | 1032.9 hPa | - | - | - | - |
| 1777528615 | 5° C | 75% | 1032.9 hPa | - | - | - | - |
| 1777527714 | 5° C | 74% | 1032.9 hPa | - | - | - | - |
| 1777526814 | 5° C | 75% | 1032.8 hPa | - | - | - | - |
| 1777525914 | 5° C | 74% | 1032.7 hPa | - | - | - | - |
| 1777525014 | 5° C | 74% | 1032.5 hPa | - | - | - | - |
* Rain since midnight (hover to see other rain measurements)
** Current wind speed in m/s (hover to see current wind gust speed)